createdAt,value
2023-08-30T00:01:49.236Z,100.00
2023-08-30T00:06:48.053Z,100.00
2023-08-30T00:11:47.008Z,100.00
2023-08-30T00:16:45.814Z,99.82
2023-08-30T00:21:45.568Z,98.76
2023-08-30T00:26:44.503Z,99.65
2023-08-30T00:31:43.719Z,98.41
2023-08-30T00:36:42.729Z,98.09
2023-08-30T00:41:41.865Z,97.33
2023-08-30T00:46:42.492Z,97.70
2023-08-30T00:51:41.852Z,96.36
2023-08-30T00:56:40.843Z,96.03
2023-08-30T01:01:41.477Z,94.40
2023-08-30T01:06:40.350Z,94.36
2023-08-30T01:12:09.973Z,95.71
2023-08-30T01:17:11.068Z,94.12
2023-08-30T01:22:15.985Z,94.82
2023-08-30T01:27:17.669Z,95.21
2023-08-30T01:32:17.704Z,95.51
2023-08-30T01:37:17.409Z,94.09
2023-08-30T01:42:16.573Z,93.68
2023-08-30T01:47:17.490Z,92.30
2023-08-30T01:52:16.649Z,91.38
2023-08-30T01:57:17.080Z,93.08
2023-08-30T02:02:16.083Z,97.01
2023-08-30T02:07:23.183Z,93.58
2023-08-30T02:12:28.550Z,93.66
2023-08-30T02:17:27.498Z,95.81
2023-08-30T02:22:26.396Z,96.04
2023-08-30T02:27:25.329Z,93.96
2023-08-30T02:32:24.166Z,94.93
2023-08-30T02:37:23.085Z,99.41
2023-08-30T02:42:23.282Z,93.66
2023-08-30T02:47:22.062Z,94.91
2023-08-30T02:52:20.960Z,97.46
2023-08-30T02:57:20.010Z,96.60
2023-08-30T03:02:18.894Z,94.86
2023-08-30T03:07:17.809Z,94.28
2023-08-30T03:12:16.627Z,96.38
2023-08-30T03:17:18.480Z,96.17
2023-08-30T03:22:17.331Z,95.38
2023-08-30T03:27:17.508Z,93.86
2023-08-30T03:32:18.730Z,96.15
2023-08-30T03:37:18.371Z,95.87
2023-08-30T03:42:17.278Z,95.30
2023-08-30T03:47:16.072Z,93.13
2023-08-30T03:52:14.858Z,94.71
2023-08-30T03:57:13.870Z,94.23
2023-08-30T04:02:12.807Z,93.85
2023-08-30T04:07:11.614Z,93.95
2023-08-30T04:12:10.503Z,94.55
2023-08-30T04:17:09.428Z,92.27
2023-08-30T04:22:08.237Z,93.74
2023-08-30T04:27:07.184Z,89.97
2023-08-30T04:32:06.922Z,82.70
2023-08-30T04:37:05.753Z,82.35
2023-08-30T04:42:04.798Z,81.54
2023-08-30T04:47:04.217Z,78.40
2023-08-30T04:52:03.170Z,78.86
2023-08-30T04:57:02.026Z,79.48
2023-08-30T05:02:01.168Z,78.13
2023-08-30T05:07:01.884Z,81.58
2023-08-30T05:12:01.308Z,84.60
2023-08-30T05:17:00.469Z,89.41
2023-08-30T05:21:59.861Z,86.88
2023-08-30T05:26:58.886Z,86.91
2023-08-30T05:31:59.540Z,87.12
2023-08-30T05:37:12.280Z,89.88
2023-08-30T05:42:34.532Z,87.85
2023-08-30T05:47:33.520Z,87.17
2023-08-30T05:52:33.537Z,88.62
2023-08-30T05:57:34.798Z,86.43
2023-08-30T06:02:34.198Z,86.58
2023-08-30T06:07:33.349Z,86.02
2023-08-30T06:12:32.311Z,85.17
2023-08-30T06:17:31.389Z,85.58
2023-08-30T06:22:30.334Z,85.49
2023-08-30T06:27:29.431Z,85.26
2023-08-30T06:32:28.362Z,84.97
2023-08-30T06:37:27.520Z,84.29
2023-08-30T06:42:26.882Z,85.54
2023-08-30T06:47:25.813Z,84.49
2023-08-30T06:52:24.907Z,83.99
2023-08-30T06:57:23.745Z,84.81
2023-08-30T07:02:23.016Z,86.23
2023-08-30T07:07:21.873Z,85.49
2023-08-30T07:12:21.009Z,85.31
2023-08-30T07:17:20.120Z,83.93
2023-08-30T07:22:19.193Z,83.77
2023-08-30T07:27:18.360Z,83.65
2023-08-30T07:32:17.336Z,84.90
2023-08-30T07:37:21.466Z,84.04
2023-08-30T07:42:23.644Z,83.02
2023-08-30T07:47:22.660Z,83.44
2023-08-30T07:52:31.598Z,80.93
2023-08-30T07:57:38.238Z,81.72
2023-08-30T08:02:37.195Z,79.29
2023-08-30T08:07:40.690Z,78.14
2023-08-30T08:12:40.027Z,79.46
2023-08-30T08:17:39.436Z,76.93
2023-08-30T08:22:38.609Z,78.45
2023-08-30T08:27:38.293Z,75.73
2023-08-30T08:32:37.951Z,75.63
2023-08-30T08:37:36.951Z,75.55
2023-08-30T08:42:37.014Z,75.35
2023-08-30T08:47:36.402Z,75.33
2023-08-30T08:52:41.101Z,75.82
2023-08-30T08:57:55.458Z,74.87
2023-08-30T09:02:55.926Z,72.83
2023-08-30T09:07:56.217Z,71.67
2023-08-30T09:12:54.948Z,73.32
2023-08-30T09:17:55.198Z,70.80
2023-08-30T09:22:54.261Z,69.23
2023-08-30T09:27:59.896Z,68.54
2023-08-30T09:33:05.852Z,67.21
2023-08-30T09:38:05.337Z,65.96
2023-08-30T09:43:13.334Z,63.24
2023-08-30T09:48:13.016Z,64.05
2023-08-30T09:53:16.929Z,64.45
2023-08-30T09:58:19.695Z,64.01
2023-08-30T10:03:30.383Z,64.94
2023-08-30T10:08:32.467Z,66.52
2023-08-30T10:13:34.002Z,63.36
2023-08-30T10:18:35.858Z,63.90
2023-08-30T10:23:37.360Z,65.31
2023-08-30T10:28:38.204Z,62.54
2023-08-30T10:33:55.255Z,61.13
2023-08-30T10:38:55.661Z,63.02
2023-08-30T10:43:59.515Z,62.41
2023-08-30T10:49:15.511Z,60.82
2023-08-30T10:54:18.907Z,59.79
2023-08-30T10:59:21.860Z,62.09
2023-08-30T11:04:23.348Z,61.53
2023-08-30T11:09:23.811Z,61.45
2023-08-30T11:14:22.712Z,61.57
2023-08-30T11:19:23.413Z,61.88
2023-08-30T11:24:22.457Z,60.38
2023-08-30T11:29:21.499Z,59.40
2023-08-30T11:34:24.228Z,58.26
2023-08-30T11:39:25.265Z,55.65
2023-08-30T11:44:25.810Z,55.01
2023-08-30T11:49:24.914Z,56.05
2023-08-30T11:54:25.609Z,53.70
2023-08-30T11:59:24.408Z,55.47
2023-08-30T12:04:23.605Z,57.48
2023-08-30T12:09:23.097Z,49.87
2023-08-30T12:14:22.227Z,51.04
2023-08-30T12:19:21.751Z,50.80
2023-08-30T12:24:21.011Z,53.14
2023-08-30T12:29:19.762Z,52.53
2023-08-30T12:34:18.913Z,54.20
2023-08-30T12:39:18.213Z,51.69
2023-08-30T12:44:17.158Z,51.43
2023-08-30T12:49:16.328Z,52.35
2023-08-30T12:54:15.325Z,52.90
2023-08-30T12:59:14.444Z,52.87
2023-08-30T13:04:13.253Z,53.04
2023-08-30T13:09:12.677Z,56.38
2023-08-30T13:14:11.623Z,57.67
2023-08-30T13:19:10.578Z,55.27
2023-08-30T13:24:09.883Z,49.40
2023-08-30T13:29:09.044Z,49.18
2023-08-30T13:34:07.968Z,49.93
2023-08-30T13:39:06.965Z,50.32
2023-08-30T13:44:06.328Z,51.07
2023-08-30T13:49:05.464Z,50.07
2023-08-30T13:54:04.686Z,51.56
2023-08-30T13:59:04.769Z,50.33
2023-08-30T14:04:05.964Z,49.73
2023-08-30T14:09:06.413Z,51.21
2023-08-30T14:14:05.701Z,50.49
2023-08-30T14:19:07.230Z,47.61
2023-08-30T14:24:06.454Z,46.89
2023-08-30T14:29:05.691Z,48.01
2023-08-30T14:34:04.661Z,45.96
2023-08-30T14:39:04.381Z,49.31
2023-08-30T14:44:04.680Z,46.75
2023-08-30T14:49:03.620Z,46.91
2023-08-30T14:54:02.477Z,45.65
2023-08-30T14:59:01.234Z,47.43
2023-08-30T15:04:00.256Z,51.59
2023-08-30T15:08:59.250Z,50.16
2023-08-30T15:13:58.134Z,52.73
2023-08-30T15:18:57.162Z,56.66
2023-08-30T15:23:55.960Z,57.99
2023-08-30T15:28:54.777Z,57.20
2023-08-30T15:33:53.643Z,58.33
2023-08-30T15:38:52.409Z,58.63
2023-08-30T15:43:51.146Z,56.67
2023-08-30T15:48:49.927Z,56.91
2023-08-30T15:53:48.912Z,55.50
2023-08-30T15:58:48.593Z,55.95
2023-08-30T16:03:47.459Z,58.67
2023-08-30T16:08:46.339Z,59.28
2023-08-30T16:13:45.679Z,59.00
2023-08-30T16:18:44.601Z,60.36
2023-08-30T16:23:43.369Z,59.93
2023-08-30T16:28:42.216Z,63.08
2023-08-30T16:33:41.155Z,62.74
2023-08-30T16:38:40.349Z,62.72
2023-08-30T16:43:39.260Z,63.29
2023-08-30T16:48:39.467Z,65.88
2023-08-30T16:53:38.302Z,66.69
2023-08-30T16:58:38.010Z,67.21
2023-08-30T17:03:37.396Z,68.91
2023-08-30T17:08:36.145Z,69.49
2023-08-30T17:13:35.614Z,70.64
2023-08-30T17:18:35.414Z,71.66
2023-08-30T17:23:34.315Z,72.55
2023-08-30T17:28:34.808Z,73.64
2023-08-30T17:33:34.770Z,76.01
2023-08-30T17:38:33.841Z,74.62
2023-08-30T17:43:32.599Z,75.30
2023-08-30T17:48:32.113Z,76.61
2023-08-30T17:53:31.189Z,76.29
2023-08-30T17:58:29.977Z,76.97
2023-08-30T18:03:30.570Z,78.27
2023-08-30T18:08:29.503Z,78.80
2023-08-30T18:13:28.801Z,77.60
2023-08-30T18:18:27.767Z,78.70
2023-08-30T18:23:26.655Z,80.44
2023-08-30T18:28:25.517Z,79.80
2023-08-30T18:33:25.262Z,79.52
2023-08-30T18:38:24.106Z,79.21
2023-08-30T18:43:23.316Z,80.15
2023-08-30T18:48:22.108Z,79.69
2023-08-30T18:53:20.907Z,80.31
2023-08-30T18:58:19.739Z,80.37
2023-08-30T19:03:18.904Z,79.90
2023-08-30T19:08:18.422Z,79.92
2023-08-30T19:13:17.296Z,79.42
2023-08-30T19:18:16.066Z,79.55
2023-08-30T19:23:15.061Z,78.16
2023-08-30T19:28:14.308Z,78.44
2023-08-30T19:33:13.465Z,81.12
2023-08-30T19:38:12.909Z,80.41
2023-08-30T19:43:12.084Z,80.58
2023-08-30T19:48:11.436Z,79.36
2023-08-30T19:53:10.328Z,82.98
2023-08-30T19:58:09.279Z,82.06
2023-08-30T20:03:08.385Z,83.19
2023-08-30T20:08:07.323Z,82.43
2023-08-30T20:13:06.086Z,83.82
2023-08-30T20:18:06.887Z,84.79
2023-08-30T20:23:06.869Z,83.02
2023-08-30T20:28:05.932Z,86.39
2023-08-30T20:33:05.094Z,87.87
2023-08-30T20:38:05.216Z,85.39
2023-08-30T20:43:04.303Z,85.50
2023-08-30T20:48:06.432Z,82.96
2023-08-30T20:53:07.137Z,82.91
2023-08-30T20:58:05.888Z,82.28
2023-08-30T21:03:05.917Z,82.37
2023-08-30T21:08:05.379Z,82.11
2023-08-30T21:13:06.297Z,84.10
2023-08-30T21:18:08.957Z,84.80
2023-08-30T21:23:09.533Z,84.68
2023-08-30T21:28:09.500Z,85.22
2023-08-30T21:33:10.195Z,86.20
2023-08-30T21:38:11.020Z,86.67
2023-08-30T21:43:11.276Z,86.90
2023-08-30T21:48:10.790Z,87.19
2023-08-30T21:53:10.365Z,87.47
2023-08-30T21:58:09.435Z,85.31
2023-08-30T22:03:08.319Z,83.76
2023-08-30T22:08:07.307Z,85.75
2023-08-30T22:13:06.076Z,85.27
2023-08-30T22:18:05.529Z,85.49
2023-08-30T22:23:04.882Z,85.83
2023-08-30T22:28:04.023Z,87.52
2023-08-30T22:33:03.136Z,88.82
2023-08-30T22:38:01.935Z,86.79
2023-08-30T22:43:01.064Z,87.46
2023-08-30T22:48:00.369Z,86.24
2023-08-30T22:52:59.536Z,85.16
2023-08-30T22:57:58.467Z,86.35
2023-08-30T23:02:57.288Z,85.61
2023-08-30T23:07:57.306Z,84.39
2023-08-30T23:12:56.450Z,83.90
2023-08-30T23:17:57.522Z,85.43
2023-08-30T23:22:59.620Z,84.64
2023-08-30T23:27:58.784Z,85.96
2023-08-30T23:32:57.881Z,84.71
2023-08-30T23:37:56.652Z,82.60
2023-08-30T23:42:55.849Z,81.84
2023-08-30T23:47:54.881Z,82.85
2023-08-30T23:52:53.805Z,80.72
2023-08-30T23:57:52.985Z,82.01
